createdAt,value
2023-05-21T00:00:12.036Z,98109.66
2023-05-21T00:01:16.362Z,98114.66
2023-05-21T00:02:19.082Z,98116.66
2023-05-21T00:03:21.224Z,98109.81
2023-05-21T00:04:22.876Z,98124.34
2023-05-21T00:05:24.658Z,98110.63
2023-05-21T00:06:26.849Z,98115.97
2023-05-21T00:07:28.669Z,98114.81
2023-05-21T00:08:30.422Z,98110.22
2023-05-21T00:09:32.111Z,98111.47
2023-05-21T00:10:33.710Z,98108.03
2023-05-21T00:11:36.262Z,98109.97
2023-05-21T00:12:37.841Z,98107.63
2023-05-21T00:13:39.667Z,98101.09
2023-05-21T00:14:41.436Z,98105.28
2023-05-21T00:15:43.169Z,98096.50
2023-05-21T00:16:47.333Z,98105.69
2023-05-21T00:17:49.031Z,98099.28
2023-05-21T00:18:50.712Z,98104.19
2023-05-21T00:19:52.447Z,98101.53
2023-05-21T00:20:54.475Z,98098.09
2023-05-21T00:21:56.693Z,98101.53
2023-05-21T00:22:59.367Z,98098.44
2023-05-21T00:24:00.921Z,98098.09
2023-05-21T00:25:02.864Z,98100.84
2023-05-21T00:26:04.429Z,98092.81
2023-05-21T00:27:06.377Z,98092.03
2023-05-21T00:28:08.046Z,98098.91
2023-05-21T00:29:09.561Z,98095.13
2023-05-21T00:30:11.499Z,98091.72
2023-05-21T00:31:13.317Z,98093.56
2023-05-21T00:32:15.198Z,98088.63
2023-05-21T00:33:17.264Z,98087.88
2023-05-21T00:34:19.126Z,98087.25
2023-05-21T00:35:20.979Z,98086.84
2023-05-21T00:36:34.774Z,98086.94
2023-05-21T00:37:36.650Z,98084.25
2023-05-21T00:38:38.296Z,98085.00
2023-05-21T00:39:39.825Z,98083.09
2023-05-21T00:40:41.783Z,98085.75
2023-05-21T00:41:43.411Z,98085.34
2023-05-21T00:42:47.985Z,98083.41
2023-05-21T00:43:49.517Z,98076.56
2023-05-21T00:44:51.015Z,98080.00
2023-05-21T00:45:53.849Z,98083.41
2023-05-21T00:46:55.615Z,98087.19
2023-05-21T00:47:57.379Z,98080.75
2023-05-21T00:48:59.205Z,98082.66
2023-05-21T00:50:02.850Z,98088.44
2023-05-21T00:51:05.603Z,98084.75
2023-05-21T00:52:07.895Z,98077.97
2023-05-21T00:53:10.076Z,98077.97
2023-05-21T00:54:12.089Z,98084.06
2023-05-21T00:55:13.759Z,98077.13
2023-05-21T00:56:17.520Z,98086.66
2023-05-21T00:57:23.081Z,98076.38
2023-05-21T00:58:25.182Z,98079.78
2023-05-21T00:59:26.741Z,98082.47
2023-05-21T01:00:28.430Z,98076.09
2023-05-21T01:01:34.101Z,98073.44
2023-05-21T01:02:37.245Z,98081.03
2023-05-21T01:03:40.959Z,98078.28
2023-05-21T01:04:43.030Z,98078.28
2023-05-21T01:05:45.198Z,98080.53
2023-05-21T01:06:47.097Z,98080.53
2023-05-21T01:07:48.750Z,98074.88
2023-05-21T01:08:50.959Z,98075.28
2023-05-21T01:09:54.261Z,98080.63
2023-05-21T01:10:57.557Z,98074.94
2023-05-21T01:12:00.971Z,98084.13
2023-05-21T01:13:02.728Z,98083.31
2023-05-21T01:14:05.590Z,98077.97
2023-05-21T01:15:07.711Z,98072.63
2023-05-21T01:16:13.140Z,98080.75
2023-05-21T01:17:15.664Z,98074.25
2023-05-21T01:18:20.144Z,98078.09
2023-05-21T01:19:24.563Z,98079.59
2023-05-21T01:20:28.531Z,98075.09
2023-05-21T01:21:30.800Z,98081.50
2023-05-21T01:22:35.250Z,98072.34
2023-05-21T01:23:37.052Z,98083.44
2023-05-21T01:24:38.555Z,98077.75
2023-05-21T01:25:42.290Z,98074.41
2023-05-21T01:26:44.357Z,98075.16
2023-05-21T01:27:45.949Z,98083.91
2023-05-21T01:28:48.040Z,98080.00
2023-05-21T01:29:49.657Z,98079.69
2023-05-21T01:30:51.363Z,98081.59
2023-05-21T01:32:05.202Z,98075.47
2023-05-21T01:33:17.516Z,98076.66
2023-05-21T01:34:23.942Z,98073.22
2023-05-21T01:35:31.127Z,98078.22
2023-05-21T01:36:40.898Z,98071.38
2023-05-21T01:37:51.587Z,98078.63
2023-05-21T01:39:20.453Z,98078.72
2023-05-21T01:40:39.907Z,98072.22
2023-05-21T01:41:45.046Z,98075.28
2023-05-21T01:42:47.576Z,98076.53
2023-05-21T01:43:49.170Z,98081.88
2023-05-21T01:44:53.684Z,98074.59
2023-05-21T01:45:57.268Z,98077.28
2023-05-21T01:47:00.345Z,98075.75
2023-05-21T01:48:03.536Z,98073.91
2023-05-21T01:49:06.351Z,98074.59
2023-05-21T01:50:09.557Z,98065.44
2023-05-21T01:51:12.068Z,98079.84
2023-05-21T01:52:13.933Z,98079.53
2023-05-21T01:53:15.817Z,98075.75
2023-05-21T01:54:17.411Z,98076.53
2023-05-21T01:55:24.725Z,98068.91
2023-05-21T01:56:28.889Z,98066.25
2023-05-21T01:57:30.459Z,98071.19
2023-05-21T01:58:32.007Z,98077.34
2023-05-21T01:59:33.977Z,98069.38
2023-05-21T02:00:37.538Z,98072.81
2023-05-21T02:01:39.093Z,98070.50
2023-05-21T02:02:40.751Z,98070.13
2023-05-21T02:03:42.531Z,98070.56
2023-05-21T02:04:45.803Z,98072.88
2023-05-21T02:05:47.517Z,98068.31
2023-05-21T02:06:49.336Z,98074.41
2023-05-21T02:07:52.133Z,98070.97
2023-05-21T02:08:53.573Z,98069.16
2023-05-21T02:09:55.069Z,98067.66
2023-05-21T02:10:56.962Z,98072.69
2023-05-21T02:11:59.281Z,98069.31
2023-05-21T02:13:01.661Z,98069.66
2023-05-21T02:14:04.033Z,98067.72
2023-05-21T02:15:06.343Z,98065.06
2023-05-21T02:16:12.098Z,98064.69
2023-05-21T02:17:14.350Z,98066.22
2023-05-21T02:18:16.807Z,98064.09
2023-05-21T02:19:18.820Z,98059.59
2023-05-21T02:20:22.339Z,98062.25
2023-05-21T02:21:23.975Z,98061.91
2023-05-21T02:22:25.671Z,98061.16
2023-05-21T02:23:27.193Z,98064.97
2023-05-21T02:24:29.203Z,98057.72
2023-05-21T02:25:30.781Z,98063.47
2023-05-21T02:26:32.758Z,98061.63
2023-05-21T02:27:36.655Z,98060.50
2023-05-21T02:28:38.632Z,98059.00
2023-05-21T02:29:40.153Z,98066.22
2023-05-21T02:30:41.712Z,98061.63
2023-05-21T02:31:43.650Z,98065.38
2023-05-21T02:32:45.354Z,98062.78
2023-05-21T02:33:46.902Z,98056.69
2023-05-21T02:34:48.411Z,98056.69
2023-05-21T02:35:49.926Z,98057.50
2023-05-21T02:36:54.791Z,98053.34
2023-05-21T02:37:59.353Z,98055.59
2023-05-21T02:39:01.729Z,98058.72
2023-05-21T02:40:06.058Z,98054.53
2023-05-21T02:41:07.663Z,98054.13
2023-05-21T02:42:09.188Z,98051.50
2023-05-21T02:43:10.687Z,98051.13
2023-05-21T02:44:12.249Z,98054.91
2023-05-21T02:45:13.811Z,98052.63
2023-05-21T02:46:15.438Z,98047.31
2023-05-21T02:47:17.866Z,98050.00
2023-05-21T02:48:19.353Z,98054.59
2023-05-21T02:49:21.652Z,98055.34
2023-05-21T02:50:23.596Z,98051.22
2023-05-21T02:51:25.471Z,98047.53
2023-05-21T02:52:27.157Z,98046.75
2023-05-21T02:53:28.692Z,98047.53
2023-05-21T02:54:30.325Z,98048.59
2023-05-21T02:55:31.840Z,98049.78
2023-05-21T02:56:33.657Z,98051.34
2023-05-21T02:57:35.269Z,98043.69
2023-05-21T02:58:36.817Z,98052.84
2023-05-21T02:59:38.426Z,98053.94
2023-05-21T03:00:39.950Z,98046.72
2023-05-21T03:01:41.539Z,98054.03
2023-05-21T03:02:43.493Z,98050.25
2023-05-21T03:03:45.172Z,98051.75
2023-05-21T03:04:46.851Z,98043.03
2023-05-21T03:05:48.460Z,98045.38
2023-05-21T03:06:54.913Z,98047.63
2023-05-21T03:07:56.810Z,98049.50
2023-05-21T03:08:58.282Z,98044.50
2023-05-21T03:09:59.913Z,98047.22
2023-05-21T03:11:01.896Z,98044.56
2023-05-21T03:12:03.605Z,98045.72
2023-05-21T03:13:08.201Z,98049.16
2023-05-21T03:14:12.012Z,98043.44
2023-05-21T03:15:14.940Z,98043.88
2023-05-21T03:16:17.967Z,98042.28
2023-05-21T03:17:20.776Z,98041.94
2023-05-21T03:18:22.671Z,98043.44
2023-05-21T03:19:24.923Z,98045.78
2023-05-21T03:20:28.028Z,98053.84
2023-05-21T03:21:32.766Z,98048.84
2023-05-21T03:22:34.347Z,98049.19
2023-05-21T03:23:35.831Z,98050.69
2023-05-21T03:24:41.422Z,98053.41
2023-05-21T03:25:43.398Z,98049.94
2023-05-21T03:26:44.882Z,98050.69
2023-05-21T03:27:46.388Z,98054.53
2023-05-21T03:28:48.005Z,98053.78
2023-05-21T03:29:50.164Z,98052.66
2023-05-21T03:30:52.430Z,98056.09
2023-05-21T03:31:54.678Z,98054.59
2023-05-21T03:32:56.491Z,98055.69
2023-05-21T03:33:58.016Z,98054.53
2023-05-21T03:35:00.126Z,98057.63
2023-05-21T03:36:02.067Z,98050.75
2023-05-21T03:37:03.631Z,98052.72
2023-05-21T03:38:05.132Z,98052.03
2023-05-21T03:39:06.984Z,98055.84
2023-05-21T03:40:09.254Z,98054.63
2023-05-21T03:41:11.762Z,98054.25
2023-05-21T03:42:14.329Z,98053.84
2023-05-21T03:43:15.889Z,98053.09
2023-05-21T03:44:17.447Z,98053.41
2023-05-21T03:45:19.061Z,98050.41
2023-05-21T03:46:21.008Z,98055.75
2023-05-21T03:47:22.580Z,98059.91
2023-05-21T03:48:24.135Z,98049.31
2023-05-21T03:49:26.796Z,98053.09
2023-05-21T03:50:28.331Z,98053.19
2023-05-21T03:51:32.043Z,98050.47
2023-05-21T03:52:33.545Z,98056.16
2023-05-21T03:53:35.584Z,98063.38
2023-05-21T03:54:37.216Z,98058.75
2023-05-21T03:55:38.741Z,98056.16
2023-05-21T03:56:40.304Z,98062.72
2023-05-21T03:57:43.055Z,98064.25
2023-05-21T03:58:44.671Z,98063.09
2023-05-21T03:59:46.223Z,98069.19
2023-05-21T04:00:48.361Z,98069.53
2023-05-21T04:01:49.923Z,98069.13
2023-05-21T04:02:51.807Z,98063.38
2023-05-21T04:03:53.577Z,98064.16
2023-05-21T04:04:56.046Z,98067.16
2023-05-21T04:05:57.734Z,98070.63
2023-05-21T04:06:59.696Z,98075.97
2023-05-21T04:08:01.195Z,98074.81
2023-05-21T04:09:02.762Z,98068.34
2023-05-21T04:10:04.894Z,98070.25
2023-05-21T04:11:06.784Z,98064.50
2023-05-21T04:12:08.608Z,98070.16
2023-05-21T04:13:10.150Z,98071.34
2023-05-21T04:14:11.745Z,98069.03
2023-05-21T04:15:14.783Z,98071.28
2023-05-21T04:16:19.235Z,98077.03
2023-05-21T04:17:21.755Z,98073.53
2023-05-21T04:18:26.143Z,98072.44
2023-05-21T04:19:27.730Z,98069.38
2023-05-21T04:20:29.683Z,98067.13
2023-05-21T04:21:32.211Z,98069.78
2023-05-21T04:22:33.824Z,98064.78
2023-05-21T04:23:36.813Z,98072.75
2023-05-21T04:24:38.698Z,98068.56
2023-05-21T04:25:40.593Z,98064.78
2023-05-21T04:26:42.379Z,98071.28
2023-05-21T04:27:47.758Z,98067.16
2023-05-21T04:28:50.473Z,98067.50
2023-05-21T04:29:52.114Z,98073.94
2023-05-21T04:30:54.020Z,98079.63
2023-05-21T04:31:56.175Z,98081.19
2023-05-21T04:32:58.112Z,98077.38
2023-05-21T04:33:59.811Z,98078.13
2023-05-21T04:35:02.258Z,98075.81
2023-05-21T04:36:03.932Z,98078.06
2023-05-21T04:37:05.423Z,98078.06
2023-05-21T04:38:06.943Z,98080.72
2023-05-21T04:39:08.446Z,98083.00
2023-05-21T04:40:10.335Z,98079.53
2023-05-21T04:41:14.255Z,98081.78
2023-05-21T04:42:15.958Z,98078.72
2023-05-21T04:43:17.674Z,98084.06
2023-05-21T04:44:19.632Z,98082.47
2023-05-21T04:45:21.280Z,98086.31
2023-05-21T04:46:25.407Z,98081.72
2023-05-21T04:47:30.401Z,98088.97
2023-05-21T04:48:32.047Z,98089.38
2023-05-21T04:49:35.018Z,98089.72
2023-05-21T04:50:36.547Z,98084.72
2023-05-21T04:51:38.129Z,98087.34
2023-05-21T04:52:40.336Z,98086.19
2023-05-21T04:53:42.597Z,98086.53
2023-05-21T04:54:45.835Z,98088.81
2023-05-21T04:55:47.430Z,98085.03
2023-05-21T04:56:49.059Z,98084.22
2023-05-21T04:57:51.123Z,98083.06
2023-05-21T04:58:54.281Z,98093.34
2023-05-21T04:59:57.926Z,98086.84
2023-05-21T05:01:03.294Z,98095.28
2023-05-21T05:02:05.520Z,98091.78
2023-05-21T05:03:07.160Z,98089.47
2023-05-21T05:04:09.027Z,98084.50
2023-05-21T05:05:10.727Z,98097.84
2023-05-21T05:06:12.300Z,98087.19
2023-05-21T05:07:14.945Z,98087.56
2023-05-21T05:08:17.097Z,98085.63
2023-05-21T05:09:19.265Z,98083.66
2023-05-21T05:10:20.854Z,98080.94
2023-05-21T05:11:22.693Z,98087.03
2023-05-21T05:12:24.224Z,98086.28
2023-05-21T05:13:26.209Z,98089.28
2023-05-21T05:14:27.796Z,98090.44
2023-05-21T05:15:29.618Z,98088.16
2023-05-21T05:16:31.220Z,98088.94
2023-05-21T05:17:32.798Z,98086.56
2023-05-21T05:18:35.248Z,98089.97
2023-05-21T05:19:36.792Z,98086.94
2023-05-21T05:20:38.647Z,98097.63
2023-05-21T05:21:40.162Z,98093.44
2023-05-21T05:22:41.686Z,98089.59
2023-05-21T05:23:43.172Z,98089.28
2023-05-21T05:24:44.988Z,98097.56
2023-05-21T05:25:46.862Z,98087.25
2023-05-21T05:26:48.432Z,98097.50
2023-05-21T05:27:49.959Z,98097.84
2023-05-21T05:28:51.585Z,98097.03
2023-05-21T05:29:53.121Z,98097.72
2023-05-21T05:30:54.624Z,98092.38
2023-05-21T05:31:56.123Z,98087.00
2023-05-21T05:32:57.676Z,98087.75
2023-05-21T05:33:59.372Z,98091.84
2023-05-21T05:35:02.357Z,98092.59
2023-05-21T05:36:04.412Z,98100.19
2023-05-21T05:37:05.909Z,98092.13
2023-05-21T05:38:08.956Z,98096.66
2023-05-21T05:39:11.000Z,98093.56
2023-05-21T05:40:12.678Z,98090.84
2023-05-21T05:41:14.177Z,98093.09
2023-05-21T05:42:15.674Z,98092.66
2023-05-21T05:43:17.257Z,98097.25
2023-05-21T05:44:19.090Z,98093.78
2023-05-21T05:45:20.968Z,98091.50
2023-05-21T05:46:22.656Z,98096.03
2023-05-21T05:47:24.346Z,98097.53
2023-05-21T05:48:26.033Z,98089.47
2023-05-21T05:49:27.834Z,98091.31
2023-05-21T05:50:29.421Z,98096.28
2023-05-21T05:51:30.918Z,98091.38
2023-05-21T05:52:32.467Z,98090.22
2023-05-21T05:53:34.063Z,98087.06
2023-05-21T05:54:35.563Z,98095.00
2023-05-21T05:55:37.372Z,98089.19
2023-05-21T05:56:39.187Z,98083.41
2023-05-21T05:57:41.066Z,98085.59
2023-05-21T05:58:43.250Z,98085.94
2023-05-21T05:59:44.734Z,98078.66
2023-05-21T06:00:46.832Z,98084.69
2023-05-21T06:01:48.412Z,98089.94
2023-05-21T06:02:50.075Z,98090.34
2023-05-21T06:03:53.010Z,98087.59
2023-05-21T06:04:54.525Z,98089.78
2023-05-21T06:05:56.077Z,98087.06
2023-05-21T06:06:57.714Z,98090.78
2023-05-21T06:07:59.169Z,98080.03
2023-05-21T06:09:01.354Z,98084.56
2023-05-21T06:10:02.919Z,98087.97
2023-05-21T06:11:04.498Z,98086.06
2023-05-21T06:12:07.128Z,98083.38
2023-05-21T06:13:08.608Z,98084.28
2023-05-21T06:14:10.425Z,98084.56
2023-05-21T06:15:11.976Z,98084.47
2023-05-21T06:16:13.729Z,98085.13
2023-05-21T06:17:17.283Z,98085.50
2023-05-21T06:18:18.954Z,98084.66
2023-05-21T06:19:21.116Z,98088.41
2023-05-21T06:20:23.799Z,98090.25
2023-05-21T06:21:25.297Z,98090.25
2023-05-21T06:22:26.906Z,98088.00
2023-05-21T06:23:28.515Z,98084.81
2023-05-21T06:24:30.211Z,98086.31
2023-05-21T06:25:32.005Z,98092.78
2023-05-21T06:26:33.805Z,98089.84
2023-05-21T06:27:35.328Z,98089.84
2023-05-21T06:28:37.300Z,98090.84
2023-05-21T06:29:40.827Z,98084.41
2023-05-21T06:30:42.401Z,98090.09
2023-05-21T06:31:44.569Z,98095.38
2023-05-21T06:32:46.380Z,98082.00
2023-05-21T06:33:49.907Z,98081.91
2023-05-21T06:34:51.576Z,98084.06
2023-05-21T06:35:53.524Z,98083.25
2023-05-21T06:36:55.184Z,98085.09
2023-05-21T06:37:56.670Z,98077.75
2023-05-21T06:38:58.542Z,98086.41
2023-05-21T06:40:00.066Z,98076.38
2023-05-21T06:41:03.962Z,98082.06
2023-05-21T06:42:05.832Z,98075.50
2023-05-21T06:43:07.792Z,98085.84
2023-05-21T06:44:10.000Z,98081.59
2023-05-21T06:45:12.137Z,98080.00
2023-05-21T06:46:13.790Z,98075.75
2023-05-21T06:47:15.366Z,98090.84
2023-05-21T06:48:19.773Z,98094.19
2023-05-21T06:49:21.540Z,98088.34
2023-05-21T06:50:24.096Z,98082.81
2023-05-21T06:51:25.810Z,98087.66
2023-05-21T06:52:27.397Z,98081.44
2023-05-21T06:53:28.923Z,98083.13
2023-05-21T06:54:30.886Z,98087.22
2023-05-21T06:55:32.569Z,98089.38
2023-05-21T06:56:34.071Z,98082.44
2023-05-21T06:57:37.996Z,98087.72
2023-05-21T06:58:39.511Z,98075.31
2023-05-21T06:59:41.515Z,98089.00
2023-05-21T07:00:43.194Z,98086.34
2023-05-21T07:01:45.433Z,98083.66
2023-05-21T07:02:47.584Z,98083.25
2023-05-21T07:03:53.734Z,98080.22
2023-05-21T07:04:57.445Z,98076.06
2023-05-21T07:05:58.988Z,98079.41
2023-05-21T07:07:00.698Z,98080.06
2023-05-21T07:08:02.176Z,98089.50
2023-05-21T07:09:04.234Z,98078.22
2023-05-21T07:10:06.303Z,98086.34
2023-05-21T07:11:07.833Z,98083.13
2023-05-21T07:12:09.329Z,98084.47
2023-05-21T07:13:11.046Z,98078.25
2023-05-21T07:14:12.560Z,98083.09
2023-05-21T07:15:14.161Z,98095.63
2023-05-21T07:16:17.860Z,98089.19
2023-05-21T07:17:19.545Z,98084.16
2023-05-21T07:18:21.114Z,98096.50
2023-05-21T07:19:22.659Z,98094.28
2023-05-21T07:20:24.293Z,98092.78
2023-05-21T07:21:26.041Z,98098.88
2023-05-21T07:22:28.545Z,98100.72
2023-05-21T07:23:30.131Z,98091.53
2023-05-21T07:24:31.658Z,98102.47
2023-05-21T07:25:33.171Z,98094.00
2023-05-21T07:26:34.692Z,98104.94
2023-05-21T07:27:36.225Z,98093.06
2023-05-21T07:28:37.742Z,98103.53
2023-05-21T07:29:39.294Z,98105.38
2023-05-21T07:30:40.972Z,98096.06
2023-05-21T07:31:42.520Z,98099.91
2023-05-21T07:32:44.230Z,98098.66
2023-05-21T07:33:45.974Z,98097.03
2023-05-21T07:34:47.485Z,98089.44
2023-05-21T07:35:49.111Z,98092.03
2023-05-21T07:36:50.881Z,98095.69
2023-05-21T07:37:52.424Z,98090.69
2023-05-21T07:38:54.023Z,98097.09
2023-05-21T07:39:58.769Z,98092.59
2023-05-21T07:41:00.296Z,98097.53
2023-05-21T07:42:01.827Z,98093.00
2023-05-21T07:43:03.398Z,98099.69
2023-05-21T07:44:04.997Z,98103.03
2023-05-21T07:45:07.392Z,98090.78
2023-05-21T07:46:09.382Z,98090.28
2023-05-21T07:47:10.919Z,98090.81
2023-05-21T07:48:12.438Z,98094.88
2023-05-21T07:49:16.857Z,98086.31
2023-05-21T07:50:18.719Z,98092.41
2023-05-21T07:51:20.283Z,98088.88
2023-05-21T07:52:22.248Z,98091.03
2023-05-21T07:53:23.971Z,98095.88
2023-05-21T07:54:25.655Z,98085.88
2023-05-21T07:55:27.253Z,98089.97
2023-05-21T07:56:29.485Z,98088.91
2023-05-21T07:57:31.388Z,98092.22
2023-05-21T07:58:35.342Z,98090.63
2023-05-21T07:59:36.922Z,98090.19
2023-05-21T08:00:46.979Z,98082.78
2023-05-21T08:01:48.545Z,98088.03
2023-05-21T08:02:50.370Z,98093.50
2023-05-21T08:03:52.579Z,98087.72
2023-05-21T08:04:55.250Z,98088.78
2023-05-21T08:05:57.150Z,98087.28
2023-05-21T08:06:58.841Z,98093.09
2023-05-21T08:08:00.420Z,98094.25
2023-05-21T08:09:02.078Z,98090.19
2023-05-21T08:10:04.597Z,98095.22
2023-05-21T08:11:06.283Z,98097.91
2023-05-21T08:12:08.208Z,98084.81
2023-05-21T08:13:11.610Z,98095.44
2023-05-21T08:14:13.143Z,98096.09
2023-05-21T08:15:14.659Z,98086.75
2023-05-21T08:16:16.625Z,98089.63
2023-05-21T08:17:18.360Z,98094.81
2023-05-21T08:18:19.930Z,98093.19
2023-05-21T08:19:21.684Z,98088.16
2023-05-21T08:20:23.227Z,98094.38
2023-05-21T08:21:24.766Z,98101.56
2023-05-21T08:22:26.293Z,98095.53
2023-05-21T08:23:27.852Z,98090.16
2023-05-21T08:24:29.418Z,98090.50
2023-05-21T08:25:31.660Z,98092.53
2023-05-21T08:26:33.262Z,98092.09
2023-05-21T08:27:34.827Z,98094.91
2023-05-21T08:28:38.728Z,98089.41
2023-05-21T08:29:40.594Z,98087.81
2023-05-21T08:30:42.187Z,98090.06
2023-05-21T08:31:43.781Z,98087.06
2023-05-21T08:32:47.383Z,98090.31
2023-05-21T08:33:53.018Z,98098.53
2023-05-21T08:34:54.733Z,98089.00
2023-05-21T08:35:56.390Z,98092.94
2023-05-21T08:36:58.032Z,98090.16
2023-05-21T08:37:59.649Z,98089.16
2023-05-21T08:39:01.192Z,98084.13
2023-05-21T08:40:04.188Z,98089.78
2023-05-21T08:41:07.800Z,98089.25
2023-05-21T08:43:02.896Z,98089.00
2023-05-21T08:45:02.566Z,98087.72
2023-05-21T08:50:08.872Z,98090.31
2023-05-21T08:51:10.432Z,98089.31
2023-05-21T08:52:35.053Z,98094.69
2023-05-21T08:53:36.771Z,98091.78
2023-05-21T08:54:39.891Z,98090.16
2023-05-21T08:55:43.508Z,98085.03
2023-05-21T08:56:49.830Z,98085.03
2023-05-21T08:57:54.282Z,98091.66
2023-05-21T08:58:59.513Z,98082.41
2023-05-21T09:00:02.006Z,98080.03
2023-05-21T09:01:04.832Z,98083.34
2023-05-21T09:02:06.771Z,98085.06
2023-05-21T09:03:11.661Z,98081.50
2023-05-21T09:04:21.273Z,98087.50
2023-05-21T09:05:24.197Z,98085.06
2023-05-21T09:06:26.280Z,98079.47
2023-05-21T09:07:29.157Z,98078.19
2023-05-21T09:08:38.885Z,98076.59
2023-05-21T09:09:49.612Z,98074.53
2023-05-21T09:10:52.536Z,98077.28
2023-05-21T09:11:54.371Z,98077.34
2023-05-21T09:12:55.944Z,98073.63
2023-05-21T09:13:59.376Z,98074.16
2023-05-21T09:15:05.150Z,98075.81
2023-05-21T09:16:07.301Z,98082.09
2023-05-21T09:17:09.014Z,98079.91
2023-05-21T09:18:10.950Z,98081.28
2023-05-21T09:19:14.610Z,98083.41
2023-05-21T09:20:30.488Z,98079.84
2023-05-21T09:21:33.149Z,98084.03
2023-05-21T09:22:35.618Z,98077.69
2023-05-21T09:23:37.338Z,98087.41
2023-05-21T09:24:39.319Z,98088.44
2023-05-21T09:25:42.105Z,98085.13
2023-05-21T09:26:43.961Z,98076.16
2023-05-21T09:27:48.259Z,98094.41
2023-05-21T09:28:51.540Z,98089.78
2023-05-21T09:29:53.102Z,98085.75
2023-05-21T09:31:03.338Z,98084.31
2023-05-21T09:32:08.236Z,98089.16
2023-05-21T09:33:14.732Z,98091.75
2023-05-21T09:34:16.626Z,98083.91
2023-05-21T09:35:18.183Z,98081.97
2023-05-21T09:36:22.633Z,98076.78
2023-05-21T09:37:27.399Z,98087.56
2023-05-21T09:38:30.352Z,98086.84
2023-05-21T09:39:31.987Z,98095.63
2023-05-21T09:40:35.892Z,98085.00
2023-05-21T09:41:38.222Z,98077.38
2023-05-21T09:42:42.048Z,98090.69
2023-05-21T09:43:44.554Z,98095.94
2023-05-21T09:44:47.765Z,98089.06
2023-05-21T09:45:54.200Z,98086.84
2023-05-21T09:46:59.635Z,98081.47
2023-05-21T09:48:01.665Z,98077.88
2023-05-21T09:49:03.225Z,98085.19
2023-05-21T09:50:05.829Z,98076.69
2023-05-21T09:51:16.094Z,98092.25
2023-05-21T09:52:28.667Z,98088.38
2023-05-21T09:53:30.216Z,98087.19
2023-05-21T09:54:33.597Z,98087.97
2023-05-21T09:55:36.443Z,98085.44
2023-05-21T09:56:39.127Z,98083.22
2023-05-21T09:57:42.588Z,98085.22
2023-05-21T09:58:44.254Z,98084.00
2023-05-21T09:59:50.530Z,98090.88
2023-05-21T10:00:52.723Z,98091.13
2023-05-21T10:01:55.439Z,98085.75
2023-05-21T10:02:57.751Z,98085.59
2023-05-21T10:04:01.592Z,98088.84
2023-05-21T10:05:08.992Z,98087.81
2023-05-21T10:06:11.678Z,98083.03
2023-05-21T10:07:13.920Z,98093.97
2023-05-21T10:08:22.719Z,98092.31
2023-05-21T10:09:24.945Z,98087.25
2023-05-21T10:10:28.593Z,98094.00
2023-05-21T10:11:31.951Z,98087.09
2023-05-21T10:12:33.943Z,98088.44
2023-05-21T10:13:41.575Z,98082.41
2023-05-21T10:14:47.014Z,98091.22
2023-05-21T10:15:54.479Z,98084.97
2023-05-21T10:16:56.472Z,98083.03
2023-05-21T10:17:59.724Z,98086.63
2023-05-21T10:19:01.803Z,98082.28
2023-05-21T10:20:05.466Z,98084.41
2023-05-21T10:21:08.681Z,98081.84
2023-05-21T10:22:10.837Z,98080.91
2023-05-21T10:23:13.246Z,98083.34
2023-05-21T10:24:15.776Z,98072.44
2023-05-21T10:25:17.664Z,98081.88
2023-05-21T10:26:21.622Z,98079.91
2023-05-21T10:27:23.619Z,98077.22
2023-05-21T10:28:25.837Z,98076.31
2023-05-21T10:29:28.234Z,98081.13
2023-05-21T10:30:30.155Z,98075.56
2023-05-21T10:31:33.065Z,98075.28
2023-05-21T10:32:35.677Z,98078.28
2023-05-21T10:33:38.479Z,98081.75
2023-05-21T10:34:40.724Z,98076.22
2023-05-21T10:35:42.881Z,98070.38
2023-05-21T10:36:45.978Z,98074.41
2023-05-21T10:37:49.540Z,98073.69
2023-05-21T10:38:51.421Z,98072.34
2023-05-21T10:39:54.189Z,98076.69
2023-05-21T10:40:55.918Z,98059.19
2023-05-21T10:42:17.715Z,98062.31
2023-05-21T10:43:31.225Z,98063.66
2023-05-21T10:44:51.330Z,98066.81
2023-05-21T10:46:37.541Z,98060.19
2023-05-21T10:48:03.344Z,98067.22
2023-05-21T10:49:38.266Z,98058.84
2023-05-21T10:51:08.247Z,98055.56
2023-05-21T10:52:33.061Z,98058.84
2023-05-21T10:53:47.075Z,98059.13
2023-05-21T10:55:02.051Z,98059.00
2023-05-21T10:56:09.636Z,98056.31
2023-05-21T10:57:59.313Z,98061.53
2023-05-21T10:59:23.146Z,98052.25
2023-05-21T11:00:26.933Z,98052.53
2023-05-21T11:01:34.125Z,98054.47
2023-05-21T11:02:36.836Z,98049.84
2023-05-21T11:03:38.913Z,98050.28
2023-05-21T11:04:43.283Z,98048.06
2023-05-21T11:05:55.466Z,98043.53
2023-05-21T11:06:59.477Z,98043.25
2023-05-21T11:08:02.393Z,98041.31
2023-05-21T11:09:14.113Z,98042.34
2023-05-21T11:10:39.251Z,98046.84
2023-05-21T11:11:52.242Z,98045.97
2023-05-21T11:13:27.084Z,98042.53
2023-05-21T11:14:43.050Z,98044.75
2023-05-21T11:15:59.801Z,98040.38
2023-05-21T11:17:09.162Z,98044.41
2023-05-21T11:18:11.902Z,98043.25
2023-05-21T11:19:17.657Z,98040.38
2023-05-21T11:20:22.794Z,98041.41
2023-05-21T11:21:30.555Z,98037.06
2023-05-21T11:22:35.464Z,98048.75
2023-05-21T11:24:03.184Z,98040.84
2023-05-21T11:25:05.956Z,98046.09
2023-05-21T11:26:07.430Z,98043.69
2023-05-21T11:27:09.690Z,98037.16
2023-05-21T11:28:11.507Z,98041.47
2023-05-21T11:29:13.151Z,98039.06
2023-05-21T11:30:17.003Z,98033.22
2023-05-21T11:31:40.024Z,98042.06
2023-05-21T11:33:07.830Z,98035.94
2023-05-21T11:34:19.739Z,98035.78
2023-05-21T11:35:22.551Z,98027.69
2023-05-21T11:36:23.975Z,98031.56
2023-05-21T11:37:41.168Z,98036.06
2023-05-21T11:38:42.638Z,98034.44
2023-05-21T11:39:58.579Z,98036.50
2023-05-21T11:41:04.155Z,98035.59
2023-05-21T11:42:06.099Z,98024.19
2023-05-21T11:44:45.627Z,98036.47
2023-05-21T11:45:47.933Z,98033.53
2023-05-21T11:46:51.811Z,98031.28
2023-05-21T11:47:54.874Z,98029.38
2023-05-21T11:48:56.903Z,98018.84
2023-05-21T11:50:01.047Z,98026.25
2023-05-21T11:51:05.782Z,98025.19
2023-05-21T11:52:09.303Z,98023.91
2023-05-21T11:53:14.915Z,98030.91
2023-05-21T11:54:17.919Z,98024.25
2023-05-21T11:55:26.805Z,98023.59
2023-05-21T11:56:28.788Z,98028.22
2023-05-21T11:57:33.493Z,98025.50
2023-05-21T11:58:38.239Z,98021.16
2023-05-21T11:59:39.764Z,98021.81
2023-05-21T12:00:41.505Z,98021.31
2023-05-21T12:01:44.261Z,98027.84
2023-05-21T12:02:47.118Z,98027.28
2023-05-21T12:03:51.685Z,98021.88
2023-05-21T12:05:00.318Z,98011.09
2023-05-21T12:06:06.675Z,98019.94
2023-05-21T12:07:09.832Z,98015.84
2023-05-21T12:08:11.394Z,98016.78
2023-05-21T12:09:13.948Z,98016.88
2023-05-21T12:10:15.790Z,98016.78
2023-05-21T12:11:27.478Z,98017.06
2023-05-21T12:12:41.782Z,98012.97
2023-05-21T12:14:03.186Z,98028.00
2023-05-21T12:15:07.355Z,98013.16
2023-05-21T12:16:09.038Z,98010.88
2023-05-21T12:17:13.518Z,98011.22
2023-05-21T12:18:16.980Z,98017.34
2023-05-21T12:19:19.260Z,98011.38
2023-05-21T12:20:21.235Z,98010.84
2023-05-21T12:21:31.865Z,98010.41
2023-05-21T12:22:33.464Z,98009.97
2023-05-21T12:23:36.475Z,98012.38
2023-05-21T12:24:41.058Z,98008.53
2023-05-21T12:25:42.626Z,98002.31
2023-05-21T12:26:48.165Z,98000.00
2023-05-21T12:27:53.016Z,98006.00
2023-05-21T12:28:56.087Z,97999.91
2023-05-21T12:29:58.076Z,98007.66
2023-05-21T12:30:59.829Z,98006.06
2023-05-21T12:32:02.744Z,98000.59
2023-05-21T12:33:04.738Z,97983.50